Time;durP1;ratioP1;P1;durP2;ratioP2;P2;SDS_P1;SDS_P2;PMS_P1;PMS_P2;Temp;Humidity;BMP_temperature;BMP_pressure;BME280_temperature;BME280_humidity;BME280_pressure;Samples;Min_cycle;Max_cycle;Signal;HPM_P1;HPM_P2
2022/11/30 00:01:28;;;;;;;144.48;12.23;;;;;;;;;;5048703;28;20125;-63
2022/11/30 00:03:56;;;;;;;130.10;11.90;;;;;;;;;;5051017;28;20380;-63
2022/11/30 00:06:23;;;;;;;129.52;11.60;;;;;;;;;;5053055;28;20116;-61
2022/11/30 00:08:54;;;;;;;127.25;11.50;;;;;;;;;;5054733;28;20025;-60
2022/11/30 00:11:22;;;;;;;150.50;13.60;;;;;;;;;;5054903;28;20104;-60
2022/11/30 00:13:49;;;;;;;128.23;10.15;;;;;;;;;;5054981;28;20040;-60
2022/11/30 00:16:16;;;;;;;203.15;12.98;;;;;;;;;;5054606;28;20047;-62
2022/11/30 00:18:43;;;;;;;127.40;10.93;;;;;;;;;;5043413;28;20029;-61
2022/11/30 00:21:12;;;;;;;141.57;13.52;;;;;;;;;;5043171;28;20036;-62
2022/11/30 00:23:40;;;;;;;264.90;22.10;;;;;;;;;;5049378;28;20033;-61
2022/11/30 00:26:08;;;;;;;122.60;9.07;;;;;;;;;;5051601;28;20123;-62
2022/11/30 00:28:36;;;;;;;85.28;8.40;;;;;;;;;;5053667;28;20029;-61
2022/11/30 00:31:09;;;;;;;80.95;8.00;;;;;;;;;;5053068;28;20033;-61
2022/11/30 00:33:41;;;;;;;91.28;8.52;;;;;;;;;;5050657;28;20048;-61
2022/11/30 00:36:11;;;;;;;248.68;19.13;;;;;;;;;;5049971;28;20020;-62
2022/11/30 00:38:37;;;;;;;192.55;15.52;;;;;;;;;;5053759;28;20041;-62
2022/11/30 00:41:05;;;;;;;90.05;8.60;;;;;;;;;;5053928;28;20043;-62
2022/11/30 00:43:32;;;;;;;64.45;7.25;;;;;;;;;;5052469;28;20453;-61
2022/11/30 00:45:59;;;;;;;59.92;6.60;;;;;;;;;;5052677;28;20098;-61
2022/11/30 00:48:26;;;;;;;178.73;13.93;;;;;;;;;;5050913;28;20368;-62
2022/11/30 00:50:53;;;;;;;180.45;17.52;;;;;;;;;;5042899;28;20493;-61
2022/11/30 00:53:26;;;;;;;80.78;7.25;;;;;;;;;;5040951;28;20029;-61
2022/11/30 00:55:57;;;;;;;92.18;8.38;;;;;;;;;;5046886;28;20106;-62
2022/11/30 00:58:24;;;;;;;70.95;7.30;;;;;;;;;;5037140;28;20037;-61
2022/11/30 01:00:51;;;;;;;148.43;12.00;;;;;;;;;;5034938;28;20037;-61
2022/11/30 01:03:18;;;;;;;344.23;31.05;;;;;;;;;;5034112;28;20431;-60
2022/11/30 01:05:45;;;;;;;80.55;8.93;;;;;;;;;;5032551;28;20037;-61
2022/11/30 01:08:13;;;;;;;306.30;24.23;;;;;;;;;;5033115;28;20036;-62
2022/11/30 01:10:41;;;;;;;151.07;14.48;;;;;;;;;;5033954;28;20394;-61
2022/11/30 01:13:08;;;;;;;94.90;9.93;;;;;;;;;;5033593;28;20033;-62
2022/11/30 01:15:42;;;;;;;170.30;14.43;;;;;;;;;;5033406;28;20045;-61
2022/11/30 01:18:09;;;;;;;161.93;14.07;;;;;;;;;;5044786;28;20117;-63
2022/11/30 01:20:40;;;;;;;286.33;21.60;;;;;;;;;;5053534;28;20108;-63
2022/11/30 01:23:07;;;;;;;181.88;13.45;;;;;;;;;;5053320;28;20083;-62
2022/11/30 01:25:34;;;;;;;72.75;7.95;;;;;;;;;;5053505;28;20036;-61
2022/11/30 01:28:01;;;;;;;70.13;7.55;;;;;;;;;;5053707;28;20502;-61
2022/11/30 01:30:28;;;;;;;62.25;6.18;;;;;;;;;;5052542;28;20483;-61
2022/11/30 01:32:55;;;;;;;204.57;18.58;;;;;;;;;;5052685;28;20499;-61
2022/11/30 01:35:22;;;;;;;108.80;10.32;;;;;;;;;;5052180;28;20120;-63
2022/11/30 01:37:49;;;;;;;89.85;9.00;;;;;;;;;;5052511;28;20063;-61
2022/11/30 01:40:15;;;;;;;97.32;7.88;;;;;;;;;;5053148;28;20037;-61
2022/11/30 01:42:47;;;;;;;76.53;7.60;;;;;;;;;;5053464;28;20044;-61
2022/11/30 01:45:14;;;;;;;100.47;8.87;;;;;;;;;;5053006;28;20037;-62
2022/11/30 01:47:43;;;;;;;234.32;14.40;;;;;;;;;;5046876;28;20017;-63
2022/11/30 01:50:22;;;;;;;76.57;8.43;;;;;;;;;;5033453;28;20036;-62
2022/11/30 01:52:51;;;;;;;59.80;6.15;;;;;;;;;;5033123;28;20025;-62
2022/11/30 01:55:20;;;;;;;58.92;6.65;;;;;;;;;;5032710;28;20029;-64
2022/11/30 01:57:58;;;;;;;70.30;6.00;;;;;;;;;;5033326;28;20474;-64
2022/11/30 02:00:24;;;;;;;49.35;5.75;;;;;;;;;;5032696;28;20037;-62
2022/11/30 02:02:51;;;;;;;53.30;5.40;;;;;;;;;;5033150;28;20026;-62
2022/11/30 02:05:19;;;;;;;63.22;6.13;;;;;;;;;;5032973;28;20025;-61
2022/11/30 02:07:46;;;;;;;97.47;8.40;;;;;;;;;;5037883;28;20109;-64
2022/11/30 02:10:14;;;;;;;59.47;5.75;;;;;;;;;;5050788;28;20453;-64
2022/11/30 02:12:47;;;;;;;42.10;4.85;;;;;;;;;;5051347;28;20387;-62
2022/11/30 02:15:16;;;;;;;38.72;4.05;;;;;;;;;;5048680;28;20087;-62
2022/11/30 02:17:58;;;;;;;23.92;3.45;;;;;;;;;;5051420;28;20068;-64
2022/11/30 02:20:43;;;;;;;100.13;8.02;;;;;;;;;;5046000;28;20395;-62
2022/11/30 02:23:48;;;;;;;39.20;4.47;;;;;;;;;;5050255;28;20036;-64
2022/11/30 02:26:18;;;;;;;39.60;3.75;;;;;;;;;;4988836;28;20429;-64
2022/11/30 02:28:55;;;;;;;27.42;2.60;;;;;;;;;;4988625;28;20038;-62
2022/11/30 02:31:25;;;;;;;36.55;2.63;;;;;;;;;;5019903;28;20037;-63
2022/11/30 02:33:52;;;;;;;20.00;2.30;;;;;;;;;;5052070;28;20045;-63
2022/11/30 02:36:20;;;;;;;21.27;2.40;;;;;;;;;;5051564;28;20064;-63
2022/11/30 02:38:48;;;;;;;33.42;3.10;;;;;;;;;;5051917;28;20116;-62
2022/11/30 02:41:15;;;;;;;33.85;3.45;;;;;;;;;;5051694;28;20037;-62
2022/11/30 02:43:42;;;;;;;40.03;3.60;;;;;;;;;;5051514;28;20032;-62
2022/11/30 02:46:09;;;;;;;49.95;4.22;;;;;;;;;;5051213;28;20041;-63
2022/11/30 02:48:36;;;;;;;29.33;3.17;;;;;;;;;;5051552;28;20033;-61
2022/11/30 02:51:04;;;;;;;30.05;2.83;;;;;;;;;;5049228;28;20025;-62
2022/11/30 02:53:31;;;;;;;30.58;2.90;;;;;;;;;;5052243;28;20032;-62
2022/11/30 02:55:59;;;;;;;64.28;5.47;;;;;;;;;;5051293;28;20028;-62
2022/11/30 02:58:26;;;;;;;47.08;4.20;;;;;;;;;;5052133;28;20036;-62
2022/11/30 03:00:53;;;;;;;39.42;3.72;;;;;;;;;;5052225;28;20029;-61
2022/11/30 03:03:20;;;;;;;30.05;3.22;;;;;;;;;;5052153;28;20499;-62
2022/11/30 03:05:47;;;;;;;24.33;2.33;;;;;;;;;;5052150;28;20067;-62
2022/11/30 03:08:14;;;;;;;19.98;2.55;;;;;;;;;;5052258;28;20099;-62
2022/11/30 03:10:41;;;;;;;15.85;1.50;;;;;;;;;;5052072;28;20028;-62
2022/11/30 03:13:08;;;;;;;32.72;2.25;;;;;;;;;;5052153;28;20044;-62
2022/11/30 03:15:35;;;;;;;47.55;3.95;;;;;;;;;;5052102;28;20025;-62
2022/11/30 03:18:03;;;;;;;35.63;4.10;;;;;;;;;;5052046;28;20487;-61
2022/11/30 03:20:30;;;;;;;51.60;4.85;;;;;;;;;;5051900;28;20041;-62
2022/11/30 03:23:00;;;;;;;50.15;5.70;;;;;;;;;;5052083;28;20033;-61
2022/11/30 03:25:27;;;;;;;55.65;5.25;;;;;;;;;;5051981;28;20102;-61
2022/11/30 03:27:54;;;;;;;25.55;2.58;;;;;;;;;;5051943;28;20036;-62
2022/11/30 03:30:21;;;;;;;12.13;1.92;;;;;;;;;;5051783;28;20479;-61
2022/11/30 03:32:48;;;;;;;18.58;2.15;;;;;;;;;;5051741;28;20048;-62
2022/11/30 03:35:15;;;;;;;15.73;1.90;;;;;;;;;;5051896;28;20029;-61
2022/11/30 03:37:42;;;;;;;23.90;2.28;;;;;;;;;;5051883;28;20087;-61
2022/11/30 03:40:10;;;;;;;19.13;2.28;;;;;;;;;;5051440;28;20037;-62
2022/11/30 03:42:37;;;;;;;24.83;2.20;;;;;;;;;;5051531;28;20034;-62
2022/11/30 03:45:04;;;;;;;16.40;2.40;;;;;;;;;;5051737;28;20048;-62
2022/11/30 03:47:31;;;;;;;90.63;8.93;;;;;;;;;;5051730;28;20432;-62
2022/11/30 03:49:58;;;;;;;42.70;4.70;;;;;;;;;;5050253;28;20063;-62
2022/11/30 03:52:25;;;;;;;20.35;3.10;;;;;;;;;;5051683;28;20668;-62
2022/11/30 03:54:52;;;;;;;23.02;2.25;;;;;;;;;;5051591;28;20688;-61
2022/11/30 03:57:19;;;;;;;20.10;1.60;;;;;;;;;;5041612;28;20526;-63
2022/11/30 03:59:46;;;;;;;11.48;1.08;;;;;;;;;;5031608;28;20042;-62
2022/11/30 04:02:13;;;;;;;8.95;1.20;;;;;;;;;;5031684;28;20042;-61
2022/11/30 04:04:40;;;;;;;15.65;0.82;;;;;;;;;;5031696;28;20037;-62
2022/11/30 04:07:07;;;;;;;4.75;1.10;;;;;;;;;;5031692;28;20028;-62
2022/11/30 04:09:34;;;;;;;39.42;2.90;;;;;;;;;;5031579;28;20022;-62
2022/11/30 04:12:01;;;;;;;16.10;1.65;;;;;;;;;;5031637;28;20110;-62
2022/11/30 04:14:28;;;;;;;9.73;1.05;;;;;;;;;;5031595;28;20643;-62
2022/11/30 04:16:55;;;;;;;8.73;1.10;;;;;;;;;;5031652;28;20034;-62
2022/11/30 04:19:22;;;;;;;14.70;1.45;;;;;;;;;;5031397;28;20034;-62
2022/11/30 04:21:50;;;;;;;22.42;1.98;;;;;;;;;;5031488;28;20025;-62
2022/11/30 04:24:17;;;;;;;18.52;1.73;;;;;;;;;;5031469;28;20046;-62
2022/11/30 04:26:44;;;;;;;25.00;3.35;;;;;;;;;;5031478;28;20029;-62
2022/11/30 04:29:11;;;;;;;16.80;1.38;;;;;;;;;;5031377;28;20419;-62
2022/11/30 04:31:38;;;;;;;8.23;1.45;;;;;;;;;;5031332;28;20080;-62
2022/11/30 04:34:05;;;;;;;8.07;1.33;;;;;;;;;;5030802;28;20061;-63
2022/11/30 04:36:32;;;;;;;53.15;4.45;;;;;;;;;;5031249;28;20022;-62
2022/11/30 04:39:00;;;;;;;22.15;2.47;;;;;;;;;;5031304;28;20056;-63
2022/11/30 04:41:27;;;;;;;10.70;1.67;;;;;;;;;;5031343;28;20385;-63
2022/11/30 04:43:54;;;;;;;9.55;1.00;;;;;;;;;;5031217;28;20033;-63
2022/11/30 04:46:21;;;;;;;6.50;1.50;;;;;;;;;;5031347;28;20083;-63
2022/11/30 04:48:47;;;;;;;17.73;1.42;;;;;;;;;;5031376;28;20112;-63
2022/11/30 04:51:14;;;;;;;8.68;1.30;;;;;;;;;;5031193;28;20029;-62
2022/11/30 04:53:41;;;;;;;11.57;1.33;;;;;;;;;;5033829;28;20022;-62
2022/11/30 04:56:09;;;;;;;11.93;1.48;;;;;;;;;;5034844;28;20026;-62
2022/11/30 04:58:37;;;;;;;10.32;1.45;;;;;;;;;;5034267;28;20099;-62
2022/11/30 05:01:04;;;;;;;13.85;1.73;;;;;;;;;;5034518;28;20159;-62
2022/11/30 05:03:31;;;;;;;10.98;1.30;;;;;;;;;;5034647;28;20029;-62
2022/11/30 05:05:58;;;;;;;12.30;1.50;;;;;;;;;;5034602;28;20395;-63
2022/11/30 05:08:25;;;;;;;17.05;1.40;;;;;;;;;;5034633;28;20108;-63
2022/11/30 05:10:53;;;;;;;13.30;1.48;;;;;;;;;;5034385;28;20030;-63
2022/11/30 05:13:20;;;;;;;9.05;1.30;;;;;;;;;;5034451;28;20160;-63
2022/11/30 05:15:47;;;;;;;8.15;1.38;;;;;;;;;;5034494;28;20030;-62
2022/11/30 05:18:17;;;;;;;8.35;1.38;;;;;;;;;;5034460;28;20037;-63
2022/11/30 05:20:50;;;;;;;9.15;1.23;;;;;;;;;;5034149;28;20108;-63
2022/11/30 05:23:17;;;;;;;12.55;1.52;;;;;;;;;;5034200;28;20396;-63
2022/11/30 05:25:44;;;;;;;8.45;1.60;;;;;;;;;;5034235;28;20104;-63
2022/11/30 05:28:12;;;;;;;10.48;1.40;;;;;;;;;;5034164;28;20031;-63
2022/11/30 05:30:40;;;;;;;8.68;1.75;;;;;;;;;;5034100;28;20025;-63
2022/11/30 05:33:07;;;;;;;11.25;1.67;;;;;;;;;;5033893;28;20049;-63
2022/11/30 05:35:34;;;;;;;10.45;1.63;;;;;;;;;;5033972;28;20038;-62
2022/11/30 05:38:01;;;;;;;14.95;1.63;;;;;;;;;;5034018;28;20513;-61
2022/11/30 05:40:29;;;;;;;10.02;1.20;;;;;;;;;;5033832;28;20030;-62
2022/11/30 05:42:56;;;;;;;7.15;1.40;;;;;;;;;;5034114;28;20044;-62
2022/11/30 05:45:23;;;;;;;6.40;1.30;;;;;;;;;;5033942;28;20053;-62
2022/11/30 05:47:51;;;;;;;6.10;1.40;;;;;;;;;;5033839;28;20523;-62
2022/11/30 05:50:18;;;;;;;14.15;1.60;;;;;;;;;;5033720;28;20029;-62
2022/11/30 05:52:45;;;;;;;13.68;1.42;;;;;;;;;;5033709;28;20023;-62
2022/11/30 05:55:12;;;;;;;45.55;3.20;;;;;;;;;;5033613;28;20057;-62
2022/11/30 05:57:39;;;;;;;15.40;2.00;;;;;;;;;;5033652;28;20029;-62
2022/11/30 06:00:07;;;;;;;10.68;1.85;;;;;;;;;;5033432;28;20057;-62
2022/11/30 06:02:34;;;;;;;15.90;1.85;;;;;;;;;;5037056;28;20071;-62
2022/11/30 06:05:01;;;;;;;5.70;1.20;;;;;;;;;;5052916;28;20044;-62
2022/11/30 06:07:28;;;;;;;11.63;1.55;;;;;;;;;;5053213;28;20072;-62
2022/11/30 06:09:55;;;;;;;10.73;1.45;;;;;;;;;;5053064;28;20025;-62
2022/11/30 06:12:22;;;;;;;12.80;1.52;;;;;;;;;;5053193;28;20100;-62
2022/11/30 06:14:52;;;;;;;12.77;1.60;;;;;;;;;;5053067;28;20506;-62
2022/11/30 06:17:19;;;;;;;13.77;1.70;;;;;;;;;;5053152;28;20065;-62
2022/11/30 06:19:46;;;;;;;8.52;1.60;;;;;;;;;;5052662;28;20052;-62
2022/11/30 06:22:13;;;;;;;11.63;2.08;;;;;;;;;;5052872;28;20033;-63
2022/11/30 06:24:40;;;;;;;11.68;1.65;;;;;;;;;;5052169;28;20051;-63
2022/11/30 06:27:07;;;;;;;7.80;1.60;;;;;;;;;;5052762;28;20075;-63
2022/11/30 06:29:34;;;;;;;13.32;1.63;;;;;;;;;;5052772;28;20025;-63
2022/11/30 06:32:01;;;;;;;11.70;1.77;;;;;;;;;;5052595;28;20028;-63
2022/11/30 06:34:30;;;;;;;12.38;1.80;;;;;;;;;;5052828;28;20033;-62
2022/11/30 06:36:57;;;;;;;10.23;2.10;;;;;;;;;;5052758;28;20056;-62
2022/11/30 06:39:24;;;;;;;16.17;1.95;;;;;;;;;;5052776;28;20429;-62
2022/11/30 06:41:51;;;;;;;9.60;1.70;;;;;;;;;;5052728;28;20484;-62
2022/11/30 06:44:18;;;;;;;15.35;2.10;;;;;;;;;;5052647;28;20029;-62
2022/11/30 06:46:45;;;;;;;15.40;2.25;;;;;;;;;;5052803;28;20025;-62
2022/11/30 06:49:12;;;;;;;10.05;1.88;;;;;;;;;;5052546;28;20044;-61
2022/11/30 06:51:39;;;;;;;16.60;2.20;;;;;;;;;;5052581;28;20025;-62
2022/11/30 06:54:06;;;;;;;7.70;1.73;;;;;;;;;;5052609;28;20021;-62
2022/11/30 06:56:33;;;;;;;10.73;2.13;;;;;;;;;;5052725;28;20434;-62
2022/11/30 06:59:00;;;;;;;7.60;1.83;;;;;;;;;;5052205;28;20040;-62
2022/11/30 07:01:27;;;;;;;13.27;2.33;;;;;;;;;;5052405;28;20064;-62
2022/11/30 07:03:54;;;;;;;11.77;2.25;;;;;;;;;;5052290;28;20021;-62
2022/11/30 07:06:21;;;;;;;14.68;2.03;;;;;;;;;;5052298;28;20032;-62
2022/11/30 07:08:48;;;;;;;13.18;1.92;;;;;;;;;;5052309;28;20024;-62
2022/11/30 07:11:15;;;;;;;12.35;1.83;;;;;;;;;;5052245;28;20047;-61
2022/11/30 07:13:42;;;;;;;9.70;1.67;;;;;;;;;;5052284;28;20052;-62
2022/11/30 07:16:11;;;;;;;12.18;2.40;;;;;;;;;;5051606;28;20053;-61
2022/11/30 07:18:38;;;;;;;14.93;2.10;;;;;;;;;;5032252;28;20021;-63
2022/11/30 07:21:05;;;;;;;17.38;2.78;;;;;;;;;;5032214;28;20037;-63
2022/11/30 07:26:17;;;;;;;15.75;2.25;;;;;;;;;;5032471;28;20579;-63
2022/11/30 07:28:45;;;;;;;11.98;1.75;;;;;;;;;;5032095;28;20084;-63
2022/11/30 07:31:20;;;;;;;14.18;2.33;;;;;;;;;;5032074;28;20048;-63
2022/11/30 07:33:47;;;;;;;12.93;2.20;;;;;;;;;;5031832;28;20107;-63
2022/11/30 07:36:15;;;;;;;12.95;2.60;;;;;;;;;;5032126;28;20087;-63
2022/11/30 07:38:43;;;;;;;12.27;2.08;;;;;;;;;;5031972;28;20064;-63
2022/11/30 07:41:10;;;;;;;15.32;2.60;;;;;;;;;;5031942;28;20029;-63
2022/11/30 07:43:37;;;;;;;19.00;2.28;;;;;;;;;;5031912;28;20033;-63
2022/11/30 07:46:05;;;;;;;14.85;2.28;;;;;;;;;;5031999;28;20131;-63
2022/11/30 07:48:32;;;;;;;9.13;2.25;;;;;;;;;;5031708;28;20052;-63
2022/11/30 07:51:07;;;;;;;7.90;2.45;;;;;;;;;;5031699;28;20444;-63
2022/11/30 07:53:34;;;;;;;10.07;2.30;;;;;;;;;;5031950;28;20480;-63
2022/11/30 07:56:05;;;;;;;10.95;2.10;;;;;;;;;;5031937;28;20100;-63
2022/11/30 07:58:32;;;;;;;11.15;2.20;;;;;;;;;;5031635;28;20033;-63
2022/11/30 08:01:03;;;;;;;13.88;2.22;;;;;;;;;;5031639;28;20033;-63
2022/11/30 08:03:30;;;;;;;13.95;2.70;;;;;;;;;;5031807;28;20041;-63
2022/11/30 08:06:01;;;;;;;11.85;2.45;;;;;;;;;;5031852;28;20052;-63
2022/11/30 08:08:31;;;;;;;11.75;2.15;;;;;;;;;;5031770;28;20033;-62
2022/11/30 08:10:59;;;;;;;10.82;1.85;;;;;;;;;;5031677;28;20029;-62
2022/11/30 08:13:26;;;;;;;15.52;2.60;;;;;;;;;;5031797;28;20052;-62
2022/11/30 08:15:53;;;;;;;16.33;2.10;;;;;;;;;;5031692;28;20032;-61
2022/11/30 08:18:20;;;;;;;17.25;2.45;;;;;;;;;;5031766;28;20032;-62
2022/11/30 08:20:47;;;;;;;14.93;2.35;;;;;;;;;;5031580;28;20612;-61
2022/11/30 08:23:14;;;;;;;15.75;2.20;;;;;;;;;;5031641;28;20113;-62
2022/11/30 08:25:41;;;;;;;10.80;2.05;;;;;;;;;;5031613;28;20088;-62
2022/11/30 08:28:08;;;;;;;11.90;2.40;;;;;;;;;;5033448;28;20037;-61
2022/11/30 08:30:35;;;;;;;8.73;1.90;;;;;;;;;;5035155;28;20033;-62
2022/11/30 08:33:02;;;;;;;9.00;1.70;;;;;;;;;;5035093;28;20049;-61
2022/11/30 08:35:29;;;;;;;9.55;2.38;;;;;;;;;;5035196;28;20029;-62
2022/11/30 08:37:56;;;;;;;17.00;2.58;;;;;;;;;;5034985;28;20028;-61
2022/11/30 08:40:23;;;;;;;9.65;2.13;;;;;;;;;;5034498;28;20042;-62
2022/11/30 08:42:50;;;;;;;14.15;2.40;;;;;;;;;;5035009;28;20112;-61
2022/11/30 08:45:17;;;;;;;16.25;2.20;;;;;;;;;;5035101;28;20116;-62
2022/11/30 08:47:44;;;;;;;13.15;2.20;;;;;;;;;;5034952;28;20112;-62
2022/11/30 08:50:11;;;;;;;14.52;2.25;;;;;;;;;;5034905;28;20602;-63
2022/11/30 08:52:38;;;;;;;38.40;4.13;;;;;;;;;;5034938;28;20083;-61
2022/11/30 08:55:05;;;;;;;30.00;3.78;;;;;;;;;;5034890;28;20024;-61
2022/11/30 08:57:33;;;;;;;18.10;2.45;;;;;;;;;;5034723;28;20104;-61
2022/11/30 09:00:00;;;;;;;10.30;2.30;;;;;;;;;;5034701;28;20044;-61
2022/11/30 09:02:27;;;;;;;14.52;2.75;;;;;;;;;;5034160;28;20029;-61
2022/11/30 09:04:54;;;;;;;15.98;2.72;;;;;;;;;;5034862;28;20376;-62
2022/11/30 09:07:21;;;;;;;19.58;3.10;;;;;;;;;;5034588;28;20083;-62
2022/11/30 09:09:48;;;;;;;16.83;2.67;;;;;;;;;;5034623;28;20045;-63
2022/11/30 09:12:15;;;;;;;15.25;2.72;;;;;;;;;;5034650;28;20025;-62
2022/11/30 09:14:43;;;;;;;20.15;2.70;;;;;;;;;;5034153;28;20057;-62
2022/11/30 09:17:10;;;;;;;19.77;2.72;;;;;;;;;;5033954;28;20045;-61
2022/11/30 09:19:37;;;;;;;46.70;4.97;;;;;;;;;;5034136;28;20048;-62
2022/11/30 09:22:04;;;;;;;45.75;4.72;;;;;;;;;;5034391;28;20045;-62
2022/11/30 09:24:31;;;;;;;27.63;3.78;;;;;;;;;;5033894;28;20065;-61
2022/11/30 09:26:58;;;;;;;21.77;2.95;;;;;;;;;;5033854;28;20547;-61
2022/11/30 09:29:25;;;;;;;33.13;3.60;;;;;;;;;;5034144;28;20029;-61
2022/11/30 09:31:52;;;;;;;25.50;3.55;;;;;;;;;;5028305;28;20038;-62
2022/11/30 09:34:19;;;;;;;21.90;2.75;;;;;;;;;;5032869;28;20029;-64
2022/11/30 09:36:46;;;;;;;22.02;3.22;;;;;;;;;;5032012;28;20444;-60
2022/11/30 09:39:13;;;;;;;37.33;4.30;;;;;;;;;;5032316;28;20060;-63
2022/11/30 09:41:40;;;;;;;107.57;8.50;;;;;;;;;;5032873;28;20089;-61
2022/11/30 09:44:21;;;;;;;75.45;6.95;;;;;;;;;;5031513;28;20029;-61
2022/11/30 09:46:51;;;;;;;39.05;5.03;;;;;;;;;;5031600;28;20113;-64
2022/11/30 09:49:32;;;;;;;52.03;4.78;;;;;;;;;;5033329;28;20104;-62
2022/11/30 09:52:03;;;;;;;30.95;4.57;;;;;;;;;;5033688;28;20028;-62
2022/11/30 09:54:40;;;;;;;50.63;5.28;;;;;;;;;;5032953;28;20484;-60
2022/11/30 09:57:13;;;;;;;51.63;6.22;;;;;;;;;;5033221;28;20099;-60
2022/11/30 09:59:44;;;;;;;41.90;5.03;;;;;;;;;;5032784;28;20099;-63
2022/11/30 10:02:17;;;;;;;24.15;3.78;;;;;;;;;;5033126;28;20112;-62
2022/11/30 10:04:45;;;;;;;44.53;4.45;;;;;;;;;;5032437;28;20037;-61
2022/11/30 10:07:21;;;;;;;41.97;4.72;;;;;;;;;;5033288;28;20475;-61
2022/11/30 10:09:53;;;;;;;31.40;4.47;;;;;;;;;;5032402;28;20372;-61
2022/11/30 10:12:20;;;;;;;35.03;3.97;;;;;;;;;;5033334;28;20031;-62
2022/11/30 10:14:56;;;;;;;45.22;5.43;;;;;;;;;;5032515;28;20033;-63
2022/11/30 10:17:23;;;;;;;66.53;6.78;;;;;;;;;;5032530;28;20033;-61
2022/11/30 10:20:02;;;;;;;50.75;5.65;;;;;;;;;;5031948;28;20025;-63
2022/11/30 10:22:35;;;;;;;65.35;7.63;;;;;;;;;;5033139;28;20095;-61
2022/11/30 10:25:02;;;;;;;49.55;6.22;;;;;;;;;;5032368;28;20035;-61
2022/11/30 10:27:47;;;;;;;45.47;5.75;;;;;;;;;;5033013;28;20033;-61
2022/11/30 10:30:24;;;;;;;83.30;8.68;;;;;;;;;;5030505;28;20116;-60
2022/11/30 10:32:53;;;;;;;58.92;6.85;;;;;;;;;;5032787;28;20137;-60
2022/11/30 10:35:38;;;;;;;46.90;5.70;;;;;;;;;;5031869;28;20036;-62
2022/11/30 10:38:17;;;;;;;48.83;6.07;;;;;;;;;;5024457;28;20031;-63
2022/11/30 10:40:47;;;;;;;93.40;9.13;;;;;;;;;;5031786;28;20513;-63
2022/11/30 10:43:14;;;;;;;71.35;7.82;;;;;;;;;;5032646;28;20105;-62
2022/11/30 10:45:45;;;;;;;78.10;7.93;;;;;;;;;;5031660;28;20033;-59
2022/11/30 10:48:15;;;;;;;61.83;7.13;;;;;;;;;;5032395;28;20037;-59
2022/11/30 10:50:42;;;;;;;69.55;7.68;;;;;;;;;;5030846;28;20029;-61
2022/11/30 10:53:11;;;;;;;86.65;8.98;;;;;;;;;;5032519;28;20037;-59
2022/11/30 10:55:42;;;;;;;83.45;8.50;;;;;;;;;;5031870;28;20044;-58
2022/11/30 10:58:21;;;;;;;57.78;7.72;;;;;;;;;;5032375;28;20037;-57
2022/11/30 11:00:58;;;;;;;37.65;6.25;;;;;;;;;;5028991;28;20666;-62
2022/11/30 11:03:26;;;;;;;38.28;5.88;;;;;;;;;;5029312;28;20056;-60
2022/11/30 11:06:11;;;;;;;53.08;6.60;;;;;;;;;;5031029;28;20049;-58
2022/11/30 11:08:41;;;;;;;46.28;5.97;;;;;;;;;;5029326;28;20033;-61
2022/11/30 11:11:26;;;;;;;39.15;6.13;;;;;;;;;;5031603;28;20068;-61
2022/11/30 11:13:53;;;;;;;44.80;6.25;;;;;;;;;;5030162;28;20041;-57
2022/11/30 11:16:20;;;;;;;62.75;6.72;;;;;;;;;;5030932;28;20029;-55
2022/11/30 11:18:53;;;;;;;49.55;6.50;;;;;;;;;;5031039;28;20033;-55
2022/11/30 11:21:22;;;;;;;52.45;6.85;;;;;;;;;;5031172;28;20035;-59
2022/11/30 11:23:51;;;;;;;60.90;6.72;;;;;;;;;;5031225;28;20107;-62
2022/11/30 11:26:22;;;;;;;35.33;5.75;;;;;;;;;;5031399;28;20551;-56
2022/11/30 11:28:50;;;;;;;77.33;10.10;;;;;;;;;;5031553;28;20451;-56
2022/11/30 11:31:19;;;;;;;37.92;5.82;;;;;;;;;;5031389;28;20338;-59
2022/11/30 11:33:51;;;;;;;30.67;5.22;;;;;;;;;;5030911;28;20048;-59
2022/11/30 11:36:24;;;;;;;93.05;10.35;;;;;;;;;;5031096;28;20044;-62
2022/11/30 11:38:51;;;;;;;59.28;7.70;;;;;;;;;;5031636;28;20075;-58
2022/11/30 11:41:29;;;;;;;69.93;7.72;;;;;;;;;;5031926;28;20040;-58
2022/11/30 11:44:25;;;;;;;54.58;7.35;;;;;;;;;;5031131;28;20025;-59
2022/11/30 11:46:57;;;;;;;29.42;6.22;;;;;;;;;;5014679;28;20516;-60
2022/11/30 11:49:27;;;;;;;65.22;7.80;;;;;;;;;;5030790;28;20040;-58
2022/11/30 11:52:14;;;;;;;90.70;8.20;;;;;;;;;;5028768;28;20056;-59
2022/11/30 11:54:43;;;;;;;72.00;8.35;;;;;;;;;;5028086;28;20443;-61
2022/11/30 11:57:12;;;;;;;93.63;11.38;;;;;;;;;;5030765;28;20033;-62
2022/11/30 11:59:54;;;;;;;27.42;5.15;;;;;;;;;;5029874;28;20080;-60
2022/11/30 12:02:21;;;;;;;23.75;5.25;;;;;;;;;;5033511;28;20108;-61
2022/11/30 12:04:53;;;;;;;19.60;3.42;;;;;;;;;;5035069;28;20041;-59
2022/11/30 12:07:26;;;;;;;95.28;10.63;;;;;;;;;;5034990;28;20037;-61
2022/11/30 12:10:05;;;;;;;104.30;10.98;;;;;;;;;;5035331;28;20127;-62
2022/11/30 12:12:32;;;;;;;33.38;5.22;;;;;;;;;;5035255;28;20442;-60
2022/11/30 12:15:02;;;;;;;43.67;5.50;;;;;;;;;;5034874;28;20056;-63
2022/11/30 12:17:41;;;;;;;33.03;4.93;;;;;;;;;;5034273;28;20037;-63
2022/11/30 12:20:13;;;;;;;111.00;11.40;;;;;;;;;;5034789;28;20163;-59
2022/11/30 12:22:48;;;;;;;283.83;28.90;;;;;;;;;;5035204;28;20042;-63
2022/11/30 12:25:18;;;;;;;59.20;7.05;;;;;;;;;;5034134;28;20522;-59
2022/11/30 12:27:54;;;;;;;54.08;5.93;;;;;;;;;;5034024;28;20106;-62
2022/11/30 12:30:27;;;;;;;51.95;6.10;;;;;;;;;;5034763;28;20029;-62
2022/11/30 12:33:05;;;;;;;66.93;7.10;;;;;;;;;;5034293;28;20041;-62
2022/11/30 12:35:31;;;;;;;53.95;6.45;;;;;;;;;;5033926;28;20485;-63
2022/11/30 12:38:01;;;;;;;31.00;4.22;;;;;;;;;;5034191;28;20021;-60
2022/11/30 12:41:07;;;;;;;24.08;4.88;;;;;;;;;;5034866;28;20104;-61
2022/11/30 12:43:40;;;;;;;106.10;12.45;;;;;;;;;;4954519;29;20239;-62
2022/11/30 12:46:18;;;;;;;36.53;5.82;;;;;;;;;;4953246;29;20074;-60
2022/11/30 12:48:52;;;;;;;73.72;8.55;;;;;;;;;;5001364;28;20053;-60
2022/11/30 12:51:19;;;;;;;42.92;7.53;;;;;;;;;;5034808;28;20033;-60
2022/11/30 12:54:04;;;;;;;42.53;7.00;;;;;;;;;;5032595;28;20026;-59
2022/11/30 12:56:41;;;;;;;23.42;4.78;;;;;;;;;;5032525;28;20030;-60
2022/11/30 12:59:14;;;;;;;24.40;5.65;;;;;;;;;;5014935;28;20566;-60
2022/11/30 13:01:44;;;;;;;84.05;9.95;;;;;;;;;;5034108;28;20104;-60
2022/11/30 13:04:26;;;;;;;68.20;9.20;;;;;;;;;;5031205;28;20025;-60
2022/11/30 13:06:55;;;;;;;27.02;5.82;;;;;;;;;;5014289;28;20419;-60
2022/11/30 13:09:45;;;;;;;35.78;5.40;;;;;;;;;;5013864;28;20025;-61
2022/11/30 13:12:17;;;;;;;22.80;4.95;;;;;;;;;;5013972;28;20026;-62
2022/11/30 13:14:44;;;;;;;30.17;6.30;;;;;;;;;;5013236;28;20022;-62
2022/11/30 13:17:17;;;;;;;30.92;5.88;;;;;;;;;;5012775;28;20068;-60
2022/11/30 13:19:47;;;;;;;38.25;6.10;;;;;;;;;;5013719;28;20026;-60
2022/11/30 13:22:32;;;;;;;33.22;5.45;;;;;;;;;;5013628;28;20033;-60
2022/11/30 13:25:24;;;;;;;26.52;4.57;;;;;;;;;;5032817;28;20091;-62
2022/11/30 13:28:01;;;;;;;30.17;5.50;;;;;;;;;;5025181;28;20172;-62
2022/11/30 13:30:34;;;;;;;38.80;5.82;;;;;;;;;;5033214;28;20108;-62
2022/11/30 13:33:19;;;;;;;32.95;5.53;;;;;;;;;;5033233;28;20632;-62
2022/11/30 13:35:55;;;;;;;32.97;5.00;;;;;;;;;;5033380;28;20049;-62
2022/11/30 13:38:22;;;;;;;70.07;7.93;;;;;;;;;;5028123;28;20033;-60
2022/11/30 13:40:59;;;;;;;23.52;4.38;;;;;;;;;;5022628;28;20038;-62
2022/11/30 13:43:28;;;;;;;73.55;9.02;;;;;;;;;;5022251;28;20034;-60
2022/11/30 13:46:02;;;;;;;57.30;8.38;;;;;;;;;;5020951;28;20490;-62
2022/11/30 13:48:29;;;;;;;43.05;5.50;;;;;;;;;;5021270;28;20041;-60
2022/11/30 13:50:56;;;;;;;33.28;4.90;;;;;;;;;;5015738;28;20045;-60
2022/11/30 13:53:23;;;;;;;27.52;4.75;;;;;;;;;;5012041;28;20030;-61
2022/11/30 13:55:52;;;;;;;25.45;4.82;;;;;;;;;;5012894;28;20044;-60
2022/11/30 13:58:20;;;;;;;35.30;5.03;;;;;;;;;;5013247;28;20084;-60
2022/11/30 14:01:04;;;;;;;50.58;6.63;;;;;;;;;;5013273;28;20033;-60
2022/11/30 14:03:32;;;;;;;22.20;4.55;;;;;;;;;;5012836;28;20037;-63
2022/11/30 14:05:59;;;;;;;21.42;3.80;;;;;;;;;;5012988;28;20018;-62
2022/11/30 14:08:34;;;;;;;42.38;6.18;;;;;;;;;;5013150;28;20026;-62
2022/11/30 14:11:19;;;;;;;31.60;5.80;;;;;;;;;;5012677;28;20075;-60
2022/11/30 14:13:46;;;;;;;90.88;9.40;;;;;;;;;;5012665;28;20030;-60
2022/11/30 14:16:28;;;;;;;40.90;6.50;;;;;;;;;;5022510;28;20559;-61
2022/11/30 14:18:56;;;;;;;25.92;5.45;;;;;;;;;;5021639;28;20029;-63
2022/11/30 14:21:31;;;;;;;41.35;6.28;;;;;;;;;;5021098;28;20399;-60
2022/11/30 14:23:58;;;;;;;44.38;6.95;;;;;;;;;;5020036;28;20030;-60
2022/11/30 14:26:45;;;;;;;21.17;5.18;;;;;;;;;;5021214;28;20036;-60
2022/11/30 14:29:15;;;;;;;26.60;4.03;;;;;;;;;;5022135;28;20101;-61
2022/11/30 14:31:42;;;;;;;19.92;4.65;;;;;;;;;;5020347;28;20117;-60
2022/11/30 14:34:31;;;;;;;17.30;3.60;;;;;;;;;;5020447;28;20044;-60
2022/11/30 14:37:04;;;;;;;12.98;3.10;;;;;;;;;;5021931;28;20557;-60
2022/11/30 14:39:35;;;;;;;31.73;4.55;;;;;;;;;;5021392;28;20045;-62
2022/11/30 14:42:02;;;;;;;19.83;4.25;;;;;;;;;;5020435;28;20021;-60
2022/11/30 14:44:34;;;;;;;66.13;7.18;;;;;;;;;;5020669;28;20039;-60
2022/11/30 14:47:21;;;;;;;82.82;8.95;;;;;;;;;;5019650;28;20079;-63